sensor_id;sensor_type;location;lat;lon;timestamp;temperature;humidity
51175;DHT22;37240;50.104;20.010;2023-06-24T00:03:08;23.10;99.90
51175;DHT22;37240;50.104;20.010;2023-06-24T00:08:08;23.00;99.90
51175;DHT22;37240;50.104;20.010;2023-06-24T00:13:09;23.00;99.90
51175;DHT22;37240;50.104;20.010;2023-06-24T00:18:10;23.00;99.90
51175;DHT22;37240;50.104;20.010;2023-06-24T00:23:13;23.00;99.90
51175;DHT22;37240;50.104;20.010;2023-06-24T00:28:15;22.90;99.90
51175;DHT22;37240;50.104;20.010;2023-06-24T00:33:16;22.90;99.90
51175;DHT22;37240;50.104;20.010;2023-06-24T00:38:16;22.90;99.90
51175;DHT22;37240;50.104;20.010;2023-06-24T00:43:17;22.80;99.90
51175;DHT22;37240;50.104;20.010;2023-06-24T00:48:17;22.80;99.90
51175;DHT22;37240;50.104;20.010;2023-06-24T00:53:18;22.80;99.90
51175;DHT22;37240;50.104;20.010;2023-06-24T00:58:19;22.80;99.90
51175;DHT22;37240;50.104;20.010;2023-06-24T01:03:20;22.80;99.90
51175;DHT22;37240;50.104;20.010;2023-06-24T01:08:20;22.80;99.90
51175;DHT22;37240;50.104;20.010;2023-06-24T01:13:21;22.80;99.90
51175;DHT22;37240;50.104;20.010;2023-06-24T01:18:32;22.70;99.90
51175;DHT22;37240;50.104;20.010;2023-06-24T01:39:17;22.60;99.90
51175;DHT22;37240;50.104;20.010;2023-06-24T01:44:18;22.50;99.90
51175;DHT22;37240;50.104;20.010;2023-06-24T01:49:20;22.50;99.90
51175;DHT22;37240;50.104;20.010;2023-06-24T01:54:22;22.50;99.90
51175;DHT22;37240;50.104;20.010;2023-06-24T01:59:25;22.40;99.90
51175;DHT22;37240;50.104;20.010;2023-06-24T02:04:29;22.40;99.90
51175;DHT22;37240;50.104;20.010;2023-06-24T02:09:31;22.40;99.90
51175;DHT22;37240;50.104;20.010;2023-06-24T02:14:32;22.40;99.90
51175;DHT22;37240;50.104;20.010;2023-06-24T02:19:33;22.50;99.90
51175;DHT22;37240;50.104;20.010;2023-06-24T02:24:37;22.40;99.90
51175;DHT22;37240;50.104;20.010;2023-06-24T02:29:39;22.40;99.90
51175;DHT22;37240;50.104;20.010;2023-06-24T02:34:40;22.40;99.90
51175;DHT22;37240;50.104;20.010;2023-06-24T02:39:40;22.40;99.90
51175;DHT22;37240;50.104;20.010;2023-06-24T02:44:42;22.30;99.90
51175;DHT22;37240;50.104;20.010;2023-06-24T02:49:43;22.20;99.90
51175;DHT22;37240;50.104;20.010;2023-06-24T02:54:45;22.30;99.90
51175;DHT22;37240;50.104;20.010;2023-06-24T02:59:45;22.30;99.90
51175;DHT22;37240;50.104;20.010;2023-06-24T03:04:46;22.30;99.90
51175;DHT22;37240;50.104;20.010;2023-06-24T03:09:49;22.30;99.90
51175;DHT22;37240;50.104;20.010;2023-06-24T03:14:50;22.30;99.90
51175;DHT22;37240;50.104;20.010;2023-06-24T03:19:50;22.30;99.90
51175;DHT22;37240;50.104;20.010;2023-06-24T03:24:51;22.30;99.90
51175;DHT22;37240;50.104;20.010;2023-06-24T03:29:51;22.40;99.90
51175;DHT22;37240;50.104;20.010;2023-06-24T03:34:52;22.30;99.90
51175;DHT22;37240;50.104;20.010;2023-06-24T03:39:53;22.30;99.90
51175;DHT22;37240;50.104;20.010;2023-06-24T03:44:53;22.30;99.90
51175;DHT22;37240;50.104;20.010;2023-06-24T03:49:54;22.30;99.90
51175;DHT22;37240;50.104;20.010;2023-06-24T03:54:54;22.30;99.90
51175;DHT22;37240;50.104;20.010;2023-06-24T03:59:55;22.40;99.90
51175;DHT22;37240;50.104;20.010;2023-06-24T04:04:55;22.40;99.90
51175;DHT22;37240;50.104;20.010;2023-06-24T04:09:56;22.40;99.90
51175;DHT22;37240;50.104;20.010;2023-06-24T04:14:56;22.40;99.90
51175;DHT22;37240;50.104;20.010;2023-06-24T04:19:57;22.40;99.90
51175;DHT22;37240;50.104;20.010;2023-06-24T04:24:57;22.40;99.90
51175;DHT22;37240;50.104;20.010;2023-06-24T04:29:58;22.30;99.90
51175;DHT22;37240;50.104;20.010;2023-06-24T04:34:59;22.30;99.90
51175;DHT22;37240;50.104;20.010;2023-06-24T04:39:59;22.40;99.90
51175;DHT22;37240;50.104;20.010;2023-06-24T04:45:00;22.40;99.90
51175;DHT22;37240;50.104;20.010;2023-06-24T04:50:00;22.40;99.90
51175;DHT22;37240;50.104;20.010;2023-06-24T04:55:01;22.40;99.90
51175;DHT22;37240;50.104;20.010;2023-06-24T05:00:02;22.40;99.90
51175;DHT22;37240;50.104;20.010;2023-06-24T05:05:03;22.50;99.90
51175;DHT22;37240;50.104;20.010;2023-06-24T05:10:03;22.50;99.90
51175;DHT22;37240;50.104;20.010;2023-06-24T05:15:04;22.40;99.90
51175;DHT22;37240;50.104;20.010;2023-06-24T05:20:05;22.40;99.90
51175;DHT22;37240;50.104;20.010;2023-06-24T05:25:06;22.50;99.90
51175;DHT22;37240;50.104;20.010;2023-06-24T05:30:07;22.40;99.90
51175;DHT22;37240;50.104;20.010;2023-06-24T05:35:08;22.40;99.90
51175;DHT22;37240;50.104;20.010;2023-06-24T05:40:09;22.40;99.90
51175;DHT22;37240;50.104;20.010;2023-06-24T05:45:10;22.30;99.90
51175;DHT22;37240;50.104;20.010;2023-06-24T05:50:10;22.20;99.90
51175;DHT22;37240;50.104;20.010;2023-06-24T05:55:11;22.10;99.90
51175;DHT22;37240;50.104;20.010;2023-06-24T06:00:12;22.20;99.90
51175;DHT22;37240;50.104;20.010;2023-06-24T06:05:12;22.20;99.90
51175;DHT22;37240;50.104;20.010;2023-06-24T06:10:13;22.20;99.90
51175;DHT22;37240;50.104;20.010;2023-06-24T06:15:13;22.20;99.90
51175;DHT22;37240;50.104;20.010;2023-06-24T06:20:14;22.20;99.90
51175;DHT22;37240;50.104;20.010;2023-06-24T06:25:14;22.30;99.90
51175;DHT22;37240;50.104;20.010;2023-06-24T06:30:15;22.40;99.90
51175;DHT22;37240;50.104;20.010;2023-06-24T06:35:16;22.50;99.90
51175;DHT22;37240;50.104;20.010;2023-06-24T06:40:16;22.50;99.90
51175;DHT22;37240;50.104;20.010;2023-06-24T06:45:17;22.60;99.90
51175;DHT22;37240;50.104;20.010;2023-06-24T06:50:17;22.70;99.90
51175;DHT22;37240;50.104;20.010;2023-06-24T06:55:18;22.70;99.90
51175;DHT22;37240;50.104;20.010;2023-06-24T07:00:19;22.80;99.90
51175;DHT22;37240;50.104;20.010;2023-06-24T07:05:19;22.70;99.90
51175;DHT22;37240;50.104;20.010;2023-06-24T07:10:20;22.80;99.90
51175;DHT22;37240;50.104;20.010;2023-06-24T07:15:20;22.70;99.90
51175;DHT22;37240;50.104;20.010;2023-06-24T07:20:21;22.60;99.90
51175;DHT22;37240;50.104;20.010;2023-06-24T07:25:22;22.40;99.90
51175;DHT22;37240;50.104;20.010;2023-06-24T07:30:23;22.20;99.90
51175;DHT22;37240;50.104;20.010;2023-06-24T07:35:23;22.20;99.90
51175;DHT22;37240;50.104;20.010;2023-06-24T07:40:24;22.30;99.90
51175;DHT22;37240;50.104;20.010;2023-06-24T07:45:24;22.40;99.90
51175;DHT22;37240;50.104;20.010;2023-06-24T07:50:25;22.40;99.90
51175;DHT22;37240;50.104;20.010;2023-06-24T07:55:25;22.30;99.90
51175;DHT22;37240;50.104;20.010;2023-06-24T08:00:26;22.20;99.90
51175;DHT22;37240;50.104;20.010;2023-06-24T08:05:26;22.20;99.90
51175;DHT22;37240;50.104;20.010;2023-06-24T08:10:27;22.30;99.90
51175;DHT22;37240;50.104;20.010;2023-06-24T08:15:28;22.40;99.90
51175;DHT22;37240;50.104;20.010;2023-06-24T08:20:28;22.40;99.90
51175;DHT22;37240;50.104;20.010;2023-06-24T08:25:29;22.40;99.90
51175;DHT22;37240;50.104;20.010;2023-06-24T08:30:29;22.50;99.90
51175;DHT22;37240;50.104;20.010;2023-06-24T08:35:30;22.50;99.90
51175;DHT22;37240;50.104;20.010;2023-06-24T08:40:30;22.50;99.90
51175;DHT22;37240;50.104;20.010;2023-06-24T08:45:31;22.50;99.90
51175;DHT22;37240;50.104;20.010;2023-06-24T08:50:36;22.50;99.90
51175;DHT22;37240;50.104;20.010;2023-06-24T08:55:43;22.50;99.90
51175;DHT22;37240;50.104;20.010;2023-06-24T09:00:44;22.40;99.90
51175;DHT22;37240;50.104;20.010;2023-06-24T09:05:44;22.40;99.90
51175;DHT22;37240;50.104;20.010;2023-06-24T09:10:45;22.50;99.90
51175;DHT22;37240;50.104;20.010;2023-06-24T09:15:45;22.40;99.90
51175;DHT22;37240;50.104;20.010;2023-06-24T09:20:47;22.20;99.90
51175;DHT22;37240;50.104;20.010;2023-06-24T09:25:58;22.20;99.90
51175;DHT22;37240;50.104;20.010;2023-06-24T09:36:06;22.30;99.90
51175;DHT22;37240;50.104;20.010;2023-06-24T09:41:11;22.30;99.90
51175;DHT22;37240;50.104;20.010;2023-06-24T09:46:12;22.40;99.90
51175;DHT22;37240;50.104;20.010;2023-06-24T09:51:12;22.50;99.90
51175;DHT22;37240;50.104;20.010;2023-06-24T09:56:14;22.60;99.90
51175;DHT22;37240;50.104;20.010;2023-06-24T10:01:16;22.70;99.90
51175;DHT22;37240;50.104;20.010;2023-06-24T10:06:17;22.80;99.90
51175;DHT22;37240;50.104;20.010;2023-06-24T10:11:18;23.00;99.90
51175;DHT22;37240;50.104;20.010;2023-06-24T10:16:18;23.00;99.90
51175;DHT22;37240;50.104;20.010;2023-06-24T10:21:20;23.30;99.90
51175;DHT22;37240;50.104;20.010;2023-06-24T10:26:28;23.40;99.90
51175;DHT22;37240;50.104;20.010;2023-06-24T10:36:42;23.50;99.90
51175;DHT22;37240;50.104;20.010;2023-06-24T10:41:42;23.50;99.90
51175;DHT22;37240;50.104;20.010;2023-06-24T10:46:53;23.40;99.90
51175;DHT22;37240;50.104;20.010;2023-06-24T10:51:54;23.30;99.90
51175;DHT22;37240;50.104;20.010;2023-06-24T10:56:55;23.30;99.90
51175;DHT22;37240;50.104;20.010;2023-06-24T11:01:55;23.30;99.90
51175;DHT22;37240;50.104;20.010;2023-06-24T11:07:00;23.30;99.90
51175;DHT22;37240;50.104;20.010;2023-06-24T11:12:03;23.30;99.90
51175;DHT22;37240;50.104;20.010;2023-06-24T11:17:04;23.40;99.90
51175;DHT22;37240;50.104;20.010;2023-06-24T11:22:05;23.50;99.90
51175;DHT22;37240;50.104;20.010;2023-06-24T11:27:06;23.60;99.90
51175;DHT22;37240;50.104;20.010;2023-06-24T11:32:08;23.60;99.90
51175;DHT22;37240;50.104;20.010;2023-06-24T11:37:13;23.50;99.90
51175;DHT22;37240;50.104;20.010;2023-06-24T11:42:14;23.50;99.90
51175;DHT22;37240;50.104;20.010;2023-06-24T11:47:14;23.50;99.90
51175;DHT22;37240;50.104;20.010;2023-06-24T11:52:15;23.50;99.90
51175;DHT22;37240;50.104;20.010;2023-06-24T11:57:15;23.60;99.90
51175;DHT22;37240;50.104;20.010;2023-06-24T12:02:16;23.60;99.90
51175;DHT22;37240;50.104;20.010;2023-06-24T12:07:16;23.70;99.90
51175;DHT22;37240;50.104;20.010;2023-06-24T12:12:17;23.80;99.90
51175;DHT22;37240;50.104;20.010;2023-06-24T12:17:17;23.80;99.90
51175;DHT22;37240;50.104;20.010;2023-06-24T12:22:18;23.80;99.90
51175;DHT22;37240;50.104;20.010;2023-06-24T12:27:18;23.80;99.90
51175;DHT22;37240;50.104;20.010;2023-06-24T12:32:19;23.80;99.90
51175;DHT22;37240;50.104;20.010;2023-06-24T12:37:19;23.80;99.90
51175;DHT22;37240;50.104;20.010;2023-06-24T12:42:20;23.80;99.90
51175;DHT22;37240;50.104;20.010;2023-06-24T12:47:21;23.80;99.90
51175;DHT22;37240;50.104;20.010;2023-06-24T12:52:22;23.90;99.90
51175;DHT22;37240;50.104;20.010;2023-06-24T12:57:22;23.80;99.90
51175;DHT22;37240;50.104;20.010;2023-06-24T13:02:23;23.80;99.90
51175;DHT22;37240;50.104;20.010;2023-06-24T13:07:23;23.70;99.90
51175;DHT22;37240;50.104;20.010;2023-06-24T13:12:24;23.60;99.90
51175;DHT22;37240;50.104;20.010;2023-06-24T13:17:25;23.50;99.90
51175;DHT22;37240;50.104;20.010;2023-06-24T13:22:25;23.40;99.90
51175;DHT22;37240;50.104;20.010;2023-06-24T13:27:26;23.30;99.90
51175;DHT22;37240;50.104;20.010;2023-06-24T13:32:26;23.20;99.90
51175;DHT22;37240;50.104;20.010;2023-06-24T13:37:27;23.10;99.90
51175;DHT22;37240;50.104;20.010;2023-06-24T13:42:27;23.00;99.90
51175;DHT22;37240;50.104;20.010;2023-06-24T13:47:28;23.00;99.90
51175;DHT22;37240;50.104;20.010;2023-06-24T13:52:28;23.00;99.90
51175;DHT22;37240;50.104;20.010;2023-06-24T13:57:29;23.00;99.90
51175;DHT22;37240;50.104;20.010;2023-06-24T14:02:29;23.10;99.90
51175;DHT22;37240;50.104;20.010;2023-06-24T14:07:30;23.10;99.90
51175;DHT22;37240;50.104;20.010;2023-06-24T14:12:31;23.00;99.90
51175;DHT22;37240;50.104;20.010;2023-06-24T14:17:31;22.80;99.90
51175;DHT22;37240;50.104;20.010;2023-06-24T14:22:32;22.80;99.90
51175;DHT22;37240;50.104;20.010;2023-06-24T14:27:32;22.70;99.90
51175;DHT22;37240;50.104;20.010;2023-06-24T14:32:33;22.70;99.90
51175;DHT22;37240;50.104;20.010;2023-06-24T14:37:33;22.60;99.90
51175;DHT22;37240;50.104;20.010;2023-06-24T14:42:35;22.40;99.90
51175;DHT22;37240;50.104;20.010;2023-06-24T14:47:36;22.30;99.90
51175;DHT22;37240;50.104;20.010;2023-06-24T14:52:37;22.20;99.90
51175;DHT22;37240;50.104;20.010;2023-06-24T14:57:37;21.90;99.90
51175;DHT22;37240;50.104;20.010;2023-06-24T15:02:38;21.60;99.90
51175;DHT22;37240;50.104;20.010;2023-06-24T15:07:38;21.40;99.90
51175;DHT22;37240;50.104;20.010;2023-06-24T15:12:39;21.30;99.90
51175;DHT22;37240;50.104;20.010;2023-06-24T15:17:41;21.10;99.90
51175;DHT22;37240;50.104;20.010;2023-06-24T15:22:41;21.00;99.90
51175;DHT22;37240;50.104;20.010;2023-06-24T15:27:42;21.00;99.90
51175;DHT22;37240;50.104;20.010;2023-06-24T15:32:42;21.00;99.90
51175;DHT22;37240;50.104;20.010;2023-06-24T15:37:43;20.90;99.90
51175;DHT22;37240;50.104;20.010;2023-06-24T15:42:43;20.90;99.90
51175;DHT22;37240;50.104;20.010;2023-06-24T15:47:44;21.00;99.90
51175;DHT22;37240;50.104;20.010;2023-06-24T15:52:44;21.00;99.90
51175;DHT22;37240;50.104;20.010;2023-06-24T15:57:45;21.00;99.90
51175;DHT22;37240;50.104;20.010;2023-06-24T16:02:46;21.00;99.90
51175;DHT22;37240;50.104;20.010;2023-06-24T16:07:46;21.00;99.90
51175;DHT22;37240;50.104;20.010;2023-06-24T16:12:47;21.00;99.90
51175;DHT22;37240;50.104;20.010;2023-06-24T16:17:47;21.10;99.90
51175;DHT22;37240;50.104;20.010;2023-06-24T16:22:48;21.10;99.90
51175;DHT22;37240;50.104;20.010;2023-06-24T16:27:48;21.10;99.90
51175;DHT22;37240;50.104;20.010;2023-06-24T16:32:49;21.00;99.90
51175;DHT22;37240;50.104;20.010;2023-06-24T16:37:49;21.10;99.90
51175;DHT22;37240;50.104;20.010;2023-06-24T16:42:50;21.10;99.90
51175;DHT22;37240;50.104;20.010;2023-06-24T16:47:51;21.10;99.90
51175;DHT22;37240;50.104;20.010;2023-06-24T16:52:51;21.10;99.90
51175;DHT22;37240;50.104;20.010;2023-06-24T16:57:52;21.20;99.90
51175;DHT22;37240;50.104;20.010;2023-06-24T17:02:52;21.20;99.90
51175;DHT22;37240;50.104;20.010;2023-06-24T17:07:53;21.30;99.90
51175;DHT22;37240;50.104;20.010;2023-06-24T17:12:53;21.30;99.90
51175;DHT22;37240;50.104;20.010;2023-06-24T17:17:54;21.20;99.90
51175;DHT22;37240;50.104;20.010;2023-06-24T17:22:54;21.20;99.90
51175;DHT22;37240;50.104;20.010;2023-06-24T17:27:55;21.10;99.90
51175;DHT22;37240;50.104;20.010;2023-06-24T17:32:55;21.00;99.90
51175;DHT22;37240;50.104;20.010;2023-06-24T17:37:56;20.80;99.90
51175;DHT22;37240;50.104;20.010;2023-06-24T17:42:56;20.90;99.90
51175;DHT22;37240;50.104;20.010;2023-06-24T17:47:57;20.90;99.90
51175;DHT22;37240;50.104;20.010;2023-06-24T17:52:59;20.80;99.90
51175;DHT22;37240;50.104;20.010;2023-06-24T17:58:00;20.80;99.90
51175;DHT22;37240;50.104;20.010;2023-06-24T18:03:00;20.70;99.90
51175;DHT22;37240;50.104;20.010;2023-06-24T18:08:01;20.70;99.90
51175;DHT22;37240;50.104;20.010;2023-06-24T18:13:03;20.60;99.90
51175;DHT22;37240;50.104;20.010;2023-06-24T18:18:03;20.50;99.90
51175;DHT22;37240;50.104;20.010;2023-06-24T18:23:04;20.40;99.90
51175;DHT22;37240;50.104;20.010;2023-06-24T18:28:04;20.40;99.90
51175;DHT22;37240;50.104;20.010;2023-06-24T18:33:05;20.40;99.90
51175;DHT22;37240;50.104;20.010;2023-06-24T18:38:05;20.30;99.90
51175;DHT22;37240;50.104;20.010;2023-06-24T18:43:06;20.40;99.90
51175;DHT22;37240;50.104;20.010;2023-06-24T18:48:06;20.40;99.90
51175;DHT22;37240;50.104;20.010;2023-06-24T18:53:07;20.40;99.90
51175;DHT22;37240;50.104;20.010;2023-06-24T18:58:07;20.30;99.90
51175;DHT22;37240;50.104;20.010;2023-06-24T19:03:08;20.40;99.90
51175;DHT22;37240;50.104;20.010;2023-06-24T19:08:08;20.30;99.90
51175;DHT22;37240;50.104;20.010;2023-06-24T19:13:09;20.30;99.90
51175;DHT22;37240;50.104;20.010;2023-06-24T19:18:10;20.30;99.90
51175;DHT22;37240;50.104;20.010;2023-06-24T19:23:11;20.20;99.90
51175;DHT22;37240;50.104;20.010;2023-06-24T19:28:11;20.20;99.90
51175;DHT22;37240;50.104;20.010;2023-06-24T19:33:12;20.20;99.90
51175;DHT22;37240;50.104;20.010;2023-06-24T19:38:12;20.20;99.90
51175;DHT22;37240;50.104;20.010;2023-06-24T19:43:13;20.20;99.90
51175;DHT22;37240;50.104;20.010;2023-06-24T19:48:14;20.20;99.90
51175;DHT22;37240;50.104;20.010;2023-06-24T19:53:15;20.10;99.90
51175;DHT22;37240;50.104;20.010;2023-06-24T19:58:15;20.10;99.90
51175;DHT22;37240;50.104;20.010;2023-06-24T20:03:16;20.00;99.90
51175;DHT22;37240;50.104;20.010;2023-06-24T20:08:16;20.00;99.90
51175;DHT22;37240;50.104;20.010;2023-06-24T20:13:17;19.90;99.90
51175;DHT22;37240;50.104;20.010;2023-06-24T20:18:17;19.90;99.90
51175;DHT22;37240;50.104;20.010;2023-06-24T20:23:18;19.90;99.90
51175;DHT22;37240;50.104;20.010;2023-06-24T20:28:19;19.90;99.90
51175;DHT22;37240;50.104;20.010;2023-06-24T20:33:19;20.00;99.90
51175;DHT22;37240;50.104;20.010;2023-06-24T20:38:20;19.90;99.90
51175;DHT22;37240;50.104;20.010;2023-06-24T20:43:21;19.90;99.90
51175;DHT22;37240;50.104;20.010;2023-06-24T20:48:22;19.90;99.90
51175;DHT22;37240;50.104;20.010;2023-06-24T20:53:23;19.90;99.90
51175;DHT22;37240;50.104;20.010;2023-06-24T20:58:23;19.80;99.90
51175;DHT22;37240;50.104;20.010;2023-06-24T21:03:24;19.80;99.90
51175;DHT22;37240;50.104;20.010;2023-06-24T21:08:25;19.90;99.90
51175;DHT22;37240;50.104;20.010;2023-06-24T21:13:28;19.90;99.90
51175;DHT22;37240;50.104;20.010;2023-06-24T21:18:29;19.80;99.90
51175;DHT22;37240;50.104;20.010;2023-06-24T21:23:30;19.70;99.90
51175;DHT22;37240;50.104;20.010;2023-06-24T21:28:30;19.70;99.90
51175;DHT22;37240;50.104;20.010;2023-06-24T21:33:31;19.60;99.90
51175;DHT22;37240;50.104;20.010;2023-06-24T21:38:31;19.50;99.90
51175;DHT22;37240;50.104;20.010;2023-06-24T21:43:32;19.40;99.90
51175;DHT22;37240;50.104;20.010;2023-06-24T21:48:32;19.40;99.90
51175;DHT22;37240;50.104;20.010;2023-06-24T21:53:33;19.30;99.90
51175;DHT22;37240;50.104;20.010;2023-06-24T21:58:33;19.30;99.90
51175;DHT22;37240;50.104;20.010;2023-06-24T22:03:34;19.30;99.90
51175;DHT22;37240;50.104;20.010;2023-06-24T22:08:35;19.10;99.90
51175;DHT22;37240;50.104;20.010;2023-06-24T22:13:35;19.20;99.90
51175;DHT22;37240;50.104;20.010;2023-06-24T22:18:36;19.10;99.90
51175;DHT22;37240;50.104;20.010;2023-06-24T22:23:37;19.10;99.90
51175;DHT22;37240;50.104;20.010;2023-06-24T22:28:37;19.10;99.90
51175;DHT22;37240;50.104;20.010;2023-06-24T22:33:38;19.00;99.90
51175;DHT22;37240;50.104;20.010;2023-06-24T22:38:38;19.00;99.90
51175;DHT22;37240;50.104;20.010;2023-06-24T22:43:39;19.00;99.90
51175;DHT22;37240;50.104;20.010;2023-06-24T22:48:39;18.90;99.90
51175;DHT22;37240;50.104;20.010;2023-06-24T22:53:40;18.90;99.90
51175;DHT22;37240;50.104;20.010;2023-06-24T22:58:40;18.90;99.90
51175;DHT22;37240;50.104;20.010;2023-06-24T23:03:41;18.80;99.90
51175;DHT22;37240;50.104;20.010;2023-06-24T23:08:42;18.80;99.90
51175;DHT22;37240;50.104;20.010;2023-06-24T23:13:43;18.80;99.90
51175;DHT22;37240;50.104;20.010;2023-06-24T23:18:44;18.70;99.90
51175;DHT22;37240;50.104;20.010;2023-06-24T23:23:44;18.70;99.90
51175;DHT22;37240;50.104;20.010;2023-06-24T23:28:45;18.70;99.90
51175;DHT22;37240;50.104;20.010;2023-06-24T23:33:46;18.70;99.90
51175;DHT22;37240;50.104;20.010;2023-06-24T23:38:47;18.70;99.90
51175;DHT22;37240;50.104;20.010;2023-06-24T23:43:48;18.60;99.90
51175;DHT22;37240;50.104;20.010;2023-06-24T23:48:49;18.60;99.90
51175;DHT22;37240;50.104;20.010;2023-06-24T23:53:49;18.60;99.90
51175;DHT22;37240;50.104;20.010;2023-06-24T23:58:50;18.50;99.90
